createdAt,value
2023-04-16T00:01:43.734Z,38
2023-04-16T00:04:14.455Z,35
2023-04-16T00:06:45.083Z,37
2023-04-16T00:09:16.299Z,36
2023-04-16T00:11:47.062Z,36
2023-04-16T00:14:18.085Z,38
2023-04-16T00:16:49.607Z,36
2023-04-16T00:19:20.664Z,37
2023-04-16T00:21:51.417Z,36
2023-04-16T00:24:22.588Z,36
2023-04-16T00:26:53.619Z,36
2023-04-16T00:29:25.066Z,41
2023-04-16T00:31:56.128Z,39
2023-04-16T00:34:27.050Z,40
2023-04-16T00:36:58.504Z,40
2023-04-16T00:39:29.438Z,38
2023-04-16T00:42:00.334Z,36
2023-04-16T00:44:31.240Z,32
2023-04-16T00:47:02.202Z,36
2023-04-16T00:49:33.044Z,32
2023-04-16T00:52:03.965Z,36
2023-04-16T00:54:34.592Z,32
2023-04-16T00:57:05.379Z,32
2023-04-16T00:59:36.061Z,32
2023-04-16T01:02:06.077Z,28
2023-04-16T01:04:36.957Z,32
2023-04-16T01:07:07.955Z,32
2023-04-16T01:09:38.973Z,34
2023-04-16T01:12:09.954Z,33
2023-04-16T01:14:40.663Z,33
2023-04-16T01:17:11.870Z,28
2023-04-16T01:19:43.089Z,32
2023-04-16T01:22:13.964Z,36
2023-04-16T01:24:44.774Z,33
2023-04-16T01:27:15.583Z,31
2023-04-16T01:29:46.655Z,32
2023-04-16T01:32:17.204Z,32
2023-04-16T01:34:48.070Z,28
2023-04-16T01:37:18.496Z,36
2023-04-16T01:39:49.483Z,28
2023-04-16T01:42:22.776Z,28
2023-04-16T01:44:53.369Z,29
2023-04-16T01:47:24.058Z,31
2023-04-16T01:49:54.880Z,28
2023-04-16T01:52:25.847Z,32
2023-04-16T01:54:56.468Z,32
2023-04-16T01:57:26.810Z,32
2023-04-16T01:59:57.864Z,28
2023-04-16T02:02:28.930Z,30
2023-04-16T02:04:59.663Z,32
2023-04-16T02:07:30.181Z,28
2023-04-16T02:12:44.936Z,29
2023-04-16T02:15:15.648Z,28
2023-04-16T02:17:46.828Z,32
2023-04-16T02:20:17.675Z,28
2023-04-16T02:22:49.687Z,24
2023-04-16T02:25:20.285Z,30
2023-04-16T02:27:51.064Z,25
2023-04-16T02:30:22.022Z,29
2023-04-16T02:32:53.494Z,28
2023-04-16T02:35:24.356Z,28
2023-04-16T02:37:55.196Z,32
2023-04-16T02:40:26.096Z,32
2023-04-16T02:42:56.252Z,20
2023-04-16T02:45:27.129Z,29
2023-04-16T02:47:57.960Z,32
2023-04-16T02:50:29.447Z,28
2023-04-16T02:52:59.592Z,27
2023-04-16T02:55:30.104Z,25
2023-04-16T02:58:01.055Z,29
2023-04-16T03:00:31.767Z,24
2023-04-16T03:03:02.956Z,23
2023-04-16T03:05:33.752Z,26
2023-04-16T03:08:03.863Z,27
2023-04-16T03:10:34.972Z,27
2023-04-16T03:13:06.243Z,24
2023-04-16T03:15:36.646Z,24
2023-04-16T03:18:07.764Z,26
2023-04-16T03:25:52.234Z,20
2023-04-16T03:28:22.761Z,24
2023-04-16T03:30:54.742Z,28
2023-04-16T03:33:25.621Z,17
2023-04-16T03:35:56.593Z,26
2023-04-16T03:38:27.187Z,18
2023-04-16T03:40:57.952Z,24
2023-04-16T03:43:28.767Z,25
2023-04-16T03:46:00.196Z,28
2023-04-16T03:48:30.884Z,24
2023-04-16T03:51:02.167Z,24
2023-04-16T03:53:40.474Z,24
2023-04-16T03:56:11.549Z,24
2023-04-16T03:58:42.730Z,24
2023-04-16T04:01:13.483Z,22
2023-04-16T04:03:44.414Z,28
2023-04-16T04:06:14.894Z,26
2023-04-16T04:08:45.435Z,24
2023-04-16T04:11:16.369Z,21
2023-04-16T04:13:47.594Z,21
2023-04-16T04:16:18.230Z,25
2023-04-16T04:18:49.499Z,30
2023-04-16T04:21:20.281Z,36
2023-04-16T04:23:56.163Z,30
2023-04-16T04:26:26.793Z,24
2023-04-16T04:28:57.355Z,24
2023-04-16T04:31:36.502Z,24
2023-04-16T04:34:07.247Z,24
2023-04-16T04:36:38.517Z,28
2023-04-16T04:39:09.887Z,24
2023-04-16T04:41:41.066Z,24
2023-04-16T04:44:17.527Z,20
2023-04-16T04:46:48.041Z,20
2023-04-16T04:49:18.844Z,24
2023-04-16T04:51:49.617Z,31
2023-04-16T04:54:20.208Z,28
2023-04-16T04:56:50.853Z,20
2023-04-16T04:59:22.123Z,25
2023-04-16T05:01:52.984Z,56
2023-04-16T05:04:23.932Z,44
2023-04-16T05:06:54.904Z,48
2023-04-16T05:09:25.498Z,52
2023-04-16T05:11:56.234Z,42
2023-04-16T05:14:26.862Z,30
2023-04-16T05:16:57.829Z,23
2023-04-16T05:19:28.625Z,29
2023-04-16T05:21:59.403Z,28
2023-04-16T05:24:30.274Z,28
2023-04-16T05:27:01.005Z,29
2023-04-16T05:29:31.835Z,33
2023-04-16T05:32:05.537Z,32
2023-04-16T05:34:36.595Z,40
2023-04-16T05:37:07.342Z,33
2023-04-16T05:39:38.067Z,33
2023-04-16T05:42:08.439Z,32
2023-04-16T05:44:39.281Z,33
2023-04-16T05:47:10.939Z,32
2023-04-16T05:49:41.841Z,36
2023-04-16T05:52:13.169Z,32
2023-04-16T05:54:44.399Z,35
2023-04-16T05:57:15.761Z,36
2023-04-16T05:59:46.696Z,36
2023-04-16T06:02:17.419Z,38
2023-04-16T06:04:48.512Z,36
2023-04-16T06:07:19.644Z,44
2023-04-16T06:09:50.416Z,40
2023-04-16T06:12:20.922Z,60
2023-04-16T06:14:51.951Z,41
2023-04-16T06:17:24.024Z,41
2023-04-16T06:19:54.941Z,43
2023-04-16T06:22:24.424Z,39
2023-04-16T06:24:55.240Z,40
2023-04-16T06:27:26.193Z,40
2023-04-16T06:29:57.087Z,36
2023-04-16T06:32:30.308Z,36
2023-04-16T06:35:01.074Z,76
2023-04-16T06:37:32.178Z,52
2023-04-16T06:40:03.333Z,42
2023-04-16T06:42:35.145Z,52
2023-04-16T06:45:05.879Z,45
2023-04-16T06:47:36.447Z,48
2023-04-16T06:50:07.208Z,48
2023-04-16T06:52:38.177Z,47
2023-04-16T06:55:09.182Z,48
2023-04-16T06:57:40.577Z,45
2023-04-16T07:00:11.259Z,40
2023-04-16T07:02:42.553Z,44
2023-04-16T07:05:13.858Z,44
2023-04-16T07:07:44.390Z,44
2023-04-16T07:10:15.096Z,52
2023-04-16T07:12:45.850Z,52
2023-04-16T07:15:16.767Z,46
2023-04-16T07:17:47.616Z,48
2023-04-16T07:20:18.295Z,48
2023-04-16T07:22:49.204Z,48
2023-04-16T07:25:20.105Z,65
2023-04-16T07:27:51.081Z,60
2023-04-16T07:30:22.299Z,56
2023-04-16T07:32:53.200Z,84
2023-04-16T07:35:23.505Z,62
2023-04-16T07:37:54.619Z,52
2023-04-16T07:40:25.812Z,56
2023-04-16T07:42:56.351Z,48
2023-04-16T07:45:27.460Z,48
2023-04-16T07:47:58.011Z,47
2023-04-16T07:50:28.714Z,42
2023-04-16T07:52:59.510Z,45
2023-04-16T07:55:30.237Z,44
2023-04-16T07:58:01.060Z,37
2023-04-16T08:00:31.739Z,40
2023-04-16T08:03:02.992Z,41
2023-04-16T08:05:33.861Z,44
2023-04-16T08:08:04.452Z,34
2023-04-16T08:10:35.200Z,36
2023-04-16T08:13:05.733Z,35
2023-04-16T08:15:36.399Z,32
2023-04-16T08:18:07.375Z,44
2023-04-16T08:20:38.187Z,24
2023-04-16T08:23:09.105Z,29
2023-04-16T08:25:40.956Z,8
2023-04-16T08:28:12.139Z,12
2023-04-16T08:30:43.085Z,20
2023-04-16T08:33:14.005Z,29
2023-04-16T08:35:44.541Z,12
2023-04-16T08:38:15.530Z,12
2023-04-16T08:40:47.487Z,28
2023-04-16T08:43:18.361Z,16
2023-04-16T08:45:48.870Z,26
2023-04-16T08:48:19.999Z,16
2023-04-16T08:50:51.742Z,18
2023-04-16T08:53:22.428Z,10
2023-04-16T08:55:53.520Z,12
2023-04-16T08:58:25.617Z,12
2023-04-16T09:00:56.842Z,12
2023-04-16T09:03:27.401Z,12
2023-04-16T09:06:01.380Z,12
2023-04-16T09:08:32.257Z,12
2023-04-16T09:11:02.829Z,12
2023-04-16T09:13:33.439Z,8
2023-04-16T09:16:03.893Z,13
2023-04-16T09:18:35.316Z,8
2023-04-16T09:21:06.077Z,8
2023-04-16T09:23:36.547Z,8
2023-04-16T09:26:07.534Z,11
2023-04-16T09:28:38.353Z,8
2023-04-16T09:31:08.846Z,8
2023-04-16T09:33:39.497Z,8
2023-04-16T09:36:19.393Z,4
2023-04-16T09:38:49.587Z,7
2023-04-16T09:41:20.352Z,12
2023-04-16T09:43:51.121Z,8
2023-04-16T09:46:23.039Z,8
2023-04-16T09:48:53.324Z,4
2023-04-16T09:51:23.957Z,9
2023-04-16T09:53:54.319Z,8
2023-04-16T09:56:24.933Z,4
2023-04-16T09:58:58.325Z,12
2023-04-16T10:01:28.875Z,6
2023-04-16T10:04:05.199Z,4
2023-04-16T10:06:35.736Z,8
2023-04-16T10:09:06.076Z,12
2023-04-16T10:11:36.221Z,4
2023-04-16T10:14:07.030Z,4
2023-04-16T10:16:36.323Z,4
2023-04-16T10:19:05.391Z,7
2023-04-16T10:21:41.470Z,8
2023-04-16T10:24:16.087Z,6
2023-04-16T10:26:46.596Z,4
2023-04-16T10:29:17.231Z,7
2023-04-16T10:31:48.292Z,4
2023-04-16T10:34:19.462Z,7
2023-04-16T10:36:49.941Z,7
2023-04-16T10:39:20.629Z,8
2023-04-16T10:41:51.473Z,4
2023-04-16T10:44:22.111Z,7
2023-04-16T10:46:52.894Z,8
2023-04-16T10:49:23.538Z,8
2023-04-16T10:51:54.056Z,8
2023-04-16T10:54:24.703Z,5
2023-04-16T10:56:55.297Z,8
2023-04-16T10:59:25.800Z,12
2023-04-16T11:01:56.593Z,44
2023-04-16T11:04:27.201Z,33
2023-04-16T11:06:58.260Z,12
2023-04-16T11:09:27.492Z,23
2023-04-16T11:11:58.399Z,29
2023-04-16T11:14:29.483Z,8
2023-04-16T11:17:00.013Z,23
2023-04-16T11:19:30.889Z,9
2023-04-16T11:22:01.714Z,12
2023-04-16T11:24:32.435Z,8
2023-04-16T11:27:03.117Z,12
2023-04-16T11:29:33.841Z,12
2023-04-16T11:32:04.814Z,9
2023-04-16T11:34:35.440Z,12
2023-04-16T11:37:09.080Z,23
2023-04-16T11:39:39.679Z,9
2023-04-16T11:42:19.677Z,12
2023-04-16T11:44:50.256Z,8
2023-04-16T11:47:20.895Z,12
2023-04-16T11:49:51.299Z,13
2023-04-16T11:52:22.101Z,24
2023-04-16T11:54:53.473Z,18
2023-04-16T11:57:24.335Z,8
2023-04-16T12:00:01.211Z,8
2023-04-16T12:02:26.059Z,8
2023-04-16T12:04:56.552Z,11
2023-04-16T12:07:27.208Z,13
2023-04-16T12:09:58.586Z,23
2023-04-16T12:12:29.314Z,12
2023-04-16T12:15:03.996Z,8
2023-04-16T12:17:35.593Z,12
2023-04-16T12:20:09.826Z,4
2023-04-16T12:22:40.500Z,8
2023-04-16T12:25:15.276Z,10
2023-04-16T12:27:52.948Z,12
2023-04-16T12:32:59.607Z,8
2023-04-16T12:35:38.763Z,15
2023-04-16T12:38:08.614Z,16
2023-04-16T12:40:39.425Z,8
2023-04-16T12:43:10.133Z,8
2023-04-16T12:45:41.852Z,10
2023-04-16T12:48:12.647Z,8
2023-04-16T12:50:49.020Z,4
2023-04-16T12:53:19.778Z,4
2023-04-16T12:55:49.945Z,4
2023-04-16T12:58:20.961Z,4
2023-04-16T13:00:49.789Z,8
2023-04-16T13:03:21.779Z,10
2023-04-16T13:06:01.195Z,4
2023-04-16T13:08:31.664Z,8
2023-04-16T13:11:02.077Z,48
2023-04-16T13:13:32.817Z,16
2023-04-16T13:16:03.232Z,12
2023-04-16T13:18:33.741Z,17
2023-04-16T13:24:07.566Z,4
2023-04-16T13:34:34.694Z,18
2023-04-16T13:37:04.980Z,8
2023-04-16T13:39:35.473Z,8
2023-04-16T13:44:56.879Z,20
2023-04-16T13:47:27.583Z,20
2023-04-16T13:49:58.227Z,8
2023-04-16T13:52:28.811Z,32
2023-04-16T13:55:00.179Z,4
2023-04-16T13:57:29.980Z,23
2023-04-16T14:00:00.607Z,4
2023-04-16T14:02:31.235Z,3
2023-04-16T14:05:02.072Z,4
2023-04-16T14:07:32.391Z,13
2023-04-16T14:10:03.286Z,4
2023-04-16T14:12:34.139Z,4
2023-04-16T14:15:05.335Z,16
2023-04-16T14:17:36.051Z,4
2023-04-16T14:20:06.785Z,4
2023-04-16T14:22:37.721Z,5
2023-04-16T14:25:09.427Z,16
2023-04-16T14:27:43.227Z,13
2023-04-16T14:33:17.205Z,43
2023-04-16T14:35:54.065Z,4
2023-04-16T14:38:30.265Z,0
2023-04-16T14:43:45.701Z,12
2023-04-16T14:46:16.090Z,4
2023-04-16T14:48:46.329Z,24
2023-04-16T14:51:21.080Z,8
2023-04-16T14:56:32.673Z,8
2023-04-16T14:59:03.460Z,4
2023-04-16T15:01:43.287Z,4
2023-04-16T15:04:13.508Z,8
2023-04-16T15:06:44.156Z,5
2023-04-16T15:09:14.418Z,4
2023-04-16T15:11:44.989Z,17
2023-04-16T15:14:15.551Z,1
2023-04-16T15:16:55.758Z,4
2023-04-16T15:19:25.936Z,4
2023-04-16T15:22:02.006Z,4
2023-04-16T15:24:35.759Z,4
2023-04-16T15:32:46.449Z,8
2023-04-16T15:35:25.102Z,4
2023-04-16T15:37:59.737Z,2
2023-04-16T15:40:30.576Z,4
2023-04-16T15:43:09.804Z,0
2023-04-16T15:45:40.072Z,3
2023-04-16T15:48:11.031Z,1
2023-04-16T15:50:41.238Z,4
2023-04-16T15:53:11.513Z,3
2023-04-16T15:55:44.563Z,4
2023-04-16T15:58:18.605Z,1
2023-04-16T16:00:48.877Z,2
2023-04-16T16:03:19.399Z,4
2023-04-16T16:05:54.009Z,0
2023-04-16T16:08:24.164Z,4
2023-04-16T16:10:54.409Z,5
2023-04-16T16:13:32.583Z,4
2023-04-16T16:16:04.276Z,0
2023-04-16T16:18:34.234Z,10
2023-04-16T16:21:05.401Z,4
2023-04-16T16:23:36.016Z,4
2023-04-16T16:26:06.649Z,8
2023-04-16T16:28:37.486Z,4
2023-04-16T16:31:17.337Z,3
2023-04-16T16:33:47.323Z,4
2023-04-16T16:36:18.078Z,0
2023-04-16T16:38:48.765Z,4
2023-04-16T16:41:19.495Z,4
2023-04-16T16:43:50.169Z,4
2023-04-16T16:46:20.818Z,4
2023-04-16T16:48:51.558Z,4
2023-04-16T16:51:22.050Z,1
2023-04-16T16:53:52.391Z,23
2023-04-16T16:56:23.012Z,4
2023-04-16T16:58:53.928Z,1
2023-04-16T17:01:24.542Z,4
2023-04-16T17:03:55.105Z,4
2023-04-16T17:06:25.667Z,4
2023-04-16T17:09:00.189Z,4
2023-04-16T17:11:30.438Z,4
2023-04-16T17:14:00.888Z,16
2023-04-16T17:16:31.805Z,8
2023-04-16T17:19:03.461Z,10
2023-04-16T17:21:33.961Z,8
2023-04-16T17:24:04.510Z,12
2023-04-16T17:26:35.168Z,8
2023-04-16T17:29:06.993Z,4
2023-04-16T17:31:37.223Z,4
2023-04-16T17:34:15.973Z,8
2023-04-16T17:36:46.823Z,8
2023-04-16T17:39:20.932Z,4
2023-04-16T17:41:51.502Z,4
2023-04-16T17:44:22.680Z,4
2023-04-16T17:46:53.261Z,4
2023-04-16T17:49:24.245Z,4
2023-04-16T17:51:55.612Z,4
2023-04-16T17:54:26.068Z,4
2023-04-16T17:56:58.052Z,5
2023-04-16T17:59:28.249Z,8
2023-04-16T18:01:58.546Z,4
2023-04-16T18:04:28.778Z,4
2023-04-16T18:06:59.420Z,4
2023-04-16T18:09:30.024Z,4
2023-04-16T18:12:00.371Z,4
2023-04-16T18:14:31.326Z,4
2023-04-16T18:17:03.658Z,4
2023-04-16T18:19:33.763Z,4
2023-04-16T18:22:03.963Z,4
2023-04-16T18:24:34.928Z,4
2023-04-16T18:27:05.843Z,5
2023-04-16T18:29:36.126Z,4
2023-04-16T18:32:06.856Z,7
2023-04-16T18:34:36.876Z,4
2023-04-16T18:37:07.399Z,4
2023-04-16T18:39:39.646Z,4
2023-04-16T18:42:09.877Z,4
2023-04-16T18:44:40.262Z,8
2023-04-16T18:47:11.261Z,8
2023-04-16T18:49:41.551Z,7
2023-04-16T18:52:11.947Z,5
2023-04-16T18:54:42.417Z,5
2023-04-16T18:57:13.367Z,8
2023-04-16T18:59:43.808Z,7
2023-04-16T19:02:14.470Z,6
2023-04-16T19:04:45.446Z,8
2023-04-16T19:07:14.540Z,4
2023-04-16T19:09:44.867Z,5
2023-04-16T19:12:14.898Z,4
2023-04-16T19:14:43.715Z,4
2023-04-16T19:17:14.501Z,4
2023-04-16T19:19:44.711Z,4
2023-04-16T19:22:15.146Z,6
2023-04-16T19:24:44.459Z,9
2023-04-16T19:27:15.119Z,5
2023-04-16T19:29:43.963Z,8
2023-04-16T19:32:15.243Z,4
2023-04-16T19:34:44.177Z,4
2023-04-16T19:37:14.804Z,5
2023-04-16T19:39:45.520Z,8
2023-04-16T19:42:16.323Z,8
2023-04-16T19:44:47.005Z,8
2023-04-16T19:47:17.622Z,8
2023-04-16T19:49:48.188Z,8
2023-04-16T19:52:19.421Z,12
2023-04-16T19:54:51.200Z,9
2023-04-16T19:57:21.339Z,12
2023-04-16T19:59:53.522Z,8
2023-04-16T20:05:02.828Z,6
2023-04-16T20:07:36.197Z,8
2023-04-16T20:10:04.833Z,11
2023-04-16T20:15:35.371Z,7
2023-04-16T20:18:05.890Z,5
2023-04-16T20:20:36.018Z,4
2023-04-16T20:23:07.183Z,8
2023-04-16T20:25:37.707Z,8
2023-04-16T20:28:08.218Z,12
2023-04-16T20:30:39.749Z,8
2023-04-16T20:33:10.525Z,8
2023-04-16T20:35:41.260Z,8
2023-04-16T20:38:12.098Z,8
2023-04-16T20:40:43.406Z,8
2023-04-16T20:43:14.581Z,8
2023-04-16T20:45:45.520Z,10
2023-04-16T20:48:15.924Z,13
2023-04-16T20:50:46.754Z,13
2023-04-16T20:53:17.025Z,12
2023-04-16T20:55:47.284Z,8
2023-04-16T20:58:19.228Z,10
2023-04-16T21:00:53.180Z,15
2023-04-16T21:03:23.898Z,12
2023-04-16T21:05:54.831Z,12
2023-04-16T21:08:25.446Z,15
2023-04-16T21:10:56.449Z,12
2023-04-16T21:13:27.248Z,12
2023-04-16T21:15:58.389Z,16
2023-04-16T21:18:29.072Z,19
2023-04-16T21:20:59.728Z,17
2023-04-16T21:23:36.152Z,17
2023-04-16T21:26:06.570Z,12
2023-04-16T21:28:37.248Z,16
2023-04-16T21:31:08.342Z,19
2023-04-16T21:33:42.436Z,20
2023-04-16T21:36:13.689Z,22
2023-04-16T21:38:44.557Z,20
2023-04-16T21:41:15.634Z,24
2023-04-16T21:43:46.585Z,20
2023-04-16T21:46:17.487Z,19
2023-04-16T21:48:48.129Z,22
2023-04-16T21:51:18.953Z,19
2023-04-16T21:53:49.644Z,20
2023-04-16T21:56:20.361Z,16
2023-04-16T21:58:51.153Z,16
2023-04-16T22:01:22.866Z,16
2023-04-16T22:03:53.721Z,16
2023-04-16T22:06:24.398Z,24
2023-04-16T22:08:54.953Z,26
2023-04-16T22:11:25.830Z,24
2023-04-16T22:13:56.342Z,20
2023-04-16T22:16:26.970Z,28
2023-04-16T22:18:58.061Z,32
2023-04-16T22:21:28.632Z,33
2023-04-16T22:23:59.238Z,32
2023-04-16T22:26:29.636Z,32
2023-04-16T22:29:00.675Z,26
2023-04-16T22:31:31.298Z,28
2023-04-16T22:34:01.498Z,28
2023-04-16T22:36:30.885Z,25
2023-04-16T22:39:01.775Z,24
2023-04-16T22:41:32.116Z,24
2023-04-16T22:44:02.980Z,20
2023-04-16T22:46:34.823Z,20
2023-04-16T22:49:06.076Z,16
2023-04-16T22:51:36.530Z,20
2023-04-16T22:54:08.169Z,16
2023-04-16T22:56:38.943Z,12
2023-04-16T22:59:10.180Z,15
2023-04-16T23:01:40.348Z,16
2023-04-16T23:04:11.419Z,16
2023-04-16T23:06:42.392Z,8
2023-04-16T23:09:13.727Z,12
2023-04-16T23:11:44.280Z,12
2023-04-16T23:14:16.777Z,16
2023-04-16T23:16:46.689Z,16
2023-04-16T23:19:16.941Z,16
2023-04-16T23:21:48.078Z,16
2023-04-16T23:24:18.664Z,15
2023-04-16T23:26:49.169Z,12
2023-04-16T23:29:19.709Z,16
2023-04-16T23:31:51.194Z,12
2023-04-16T23:34:22.711Z,15
2023-04-16T23:36:53.860Z,11
2023-04-16T23:39:25.011Z,16
2023-04-16T23:41:56.415Z,12
2023-04-16T23:44:27.513Z,12
2023-04-16T23:46:58.663Z,16
2023-04-16T23:49:29.511Z,16
2023-04-16T23:52:00.740Z,16
2023-04-16T23:54:31.652Z,16
2023-04-16T23:57:02.755Z,16
2023-04-16T23:59:33.387Z,16
